Time;durP1;ratioP1;P1;durP2;ratioP2;P2;SDS_P1;SDS_P2;PMS_P1;PMS_P2;Temp;Humidity;BMP_temperature;BMP_pressure;BME280_temperature;BME280_humidity;BME280_pressure;Samples;Min_cycle;Max_cycle;Signal;HPM_P1;HPM_P2
2024/03/21 00:01:11;;;;;;;5.20;4.70;;;;;;;14.40;61.93;100370.00;10425126;28;20164;-62
2024/03/21 00:06:12;;;;;;;6.95;5.38;;;;;;;14.28;62.14;100366.66;10418462;28;20064;-62
2024/03/21 00:11:13;;;;;;;6.90;6.18;;;;;;;14.32;62.31;100361.84;10421266;28;20055;-62
2024/03/21 00:16:13;;;;;;;7.55;5.88;;;;;;;14.31;62.20;100368.22;10430752;28;20135;-61
2024/03/21 00:21:14;;;;;;;6.63;6.00;;;;;;;14.31;62.53;100371.72;10422305;28;20039;-62
2024/03/21 00:26:14;;;;;;;6.70;5.70;;;;;;;14.33;62.30;100364.38;10427759;28;20087;-62
2024/03/21 00:31:16;;;;;;;7.40;6.70;;;;;;;14.29;62.62;100370.16;10420117;28;20919;-62
2024/03/21 00:36:17;;;;;;;6.50;5.90;;;;;;;14.05;62.95;100334.03;10413916;28;20170;-63
2024/03/21 00:41:17;;;;;;;7.15;5.57;;;;;;;14.25;62.91;100369.63;10402285;28;20048;-62
2024/03/21 00:46:18;;;;;;;8.00;6.10;;;;;;;14.14;63.11;100365.28;10411770;28;20124;-63
2024/03/21 00:51:19;;;;;;;7.47;6.45;;;;;;;14.10;63.50;100360.38;10413421;28;20091;-60
2024/03/21 00:56:22;;;;;;;7.15;6.45;;;;;;;14.00;64.20;100352.34;10427979;28;20561;-62
2024/03/21 01:01:22;;;;;;;7.20;6.50;;;;;;;13.98;64.41;100354.31;10422599;28;20076;-60
2024/03/21 01:06:24;;;;;;;6.95;6.35;;;;;;;14.01;64.83;100354.03;10406589;28;20747;-62
2024/03/21 01:11:24;;;;;;;7.03;6.43;;;;;;;14.02;65.02;100358.41;10410941;28;20056;-61
2024/03/21 01:16:25;;;;;;;7.10;5.97;;;;;;;14.03;64.97;100359.25;10423064;28;20050;-62
2024/03/21 01:21:26;;;;;;;6.47;5.93;;;;;;;13.99;65.01;100347.13;10429945;28;20128;-61
2024/03/21 01:26:27;;;;;;;7.65;6.65;;;;;;;13.92;65.12;100344.19;10437547;28;20128;-62
2024/03/21 01:31:29;;;;;;;8.10;7.30;;;;;;;13.88;65.42;100353.50;10402330;28;20131;-61
2024/03/21 01:36:32;;;;;;;7.65;6.95;;;;;;;13.82;65.63;100359.41;10414419;28;20167;-61
2024/03/21 01:41:32;;;;;;;7.20;6.60;;;;;;;13.81;65.71;100358.59;10420126;28;20132;-61
2024/03/21 01:46:33;;;;;;;8.43;6.97;;;;;;;13.74;66.01;100358.28;10408616;28;20558;-61
2024/03/21 01:51:33;;;;;;;8.73;7.05;;;;;;;13.57;66.32;100345.59;10410108;28;20431;-61
2024/03/21 01:56:37;;;;;;;7.05;6.38;;;;;;;13.60;67.01;100361.38;10414302;28;20146;-60
2024/03/21 02:01:37;;;;;;;11.30;7.70;;;;;;;13.52;66.92;100361.25;10418906;28;20141;-62
2024/03/21 02:06:39;;;;;;;8.57;6.90;;;;;;;13.46;67.03;100359.13;10408875;28;20461;-61
2024/03/21 02:11:40;;;;;;;8.30;7.50;;;;;;;13.44;67.38;100356.59;10419497;28;20131;-62
2024/03/21 02:16:40;;;;;;;9.30;6.82;;;;;;;13.42;67.86;100354.06;10420678;28;20071;-60
2024/03/21 02:27:06;;;;;;;8.50;7.75;;;;;;;13.28;68.52;100341.06;10433343;28;20131;-61
2024/03/21 02:32:07;;;;;;;7.60;6.90;;;;;;;13.30;68.65;100351.63;10435449;28;20043;-61
2024/03/21 02:37:08;;;;;;;9.10;7.65;;;;;;;13.27;68.79;100369.63;10416585;28;20184;-60
2024/03/21 02:42:08;;;;;;;9.20;7.88;;;;;;;13.28;68.71;100359.78;10393077;28;20048;-62
2024/03/21 02:47:09;;;;;;;10.48;7.82;;;;;;;13.26;68.46;100364.44;10376380;28;20048;-61
2024/03/21 02:52:12;;;;;;;10.15;8.02;;;;;;;13.22;68.80;100373.69;10428807;28;20115;-62
2024/03/21 02:57:14;;;;;;;8.60;7.73;;;;;;;13.18;69.82;100364.25;10430059;28;20123;-61
2024/03/21 03:02:17;;;;;;;8.40;7.60;;;;;;;13.16;69.65;100366.22;10405544;28;20086;-61
2024/03/21 03:07:17;;;;;;;7.00;6.20;;;;;;;13.20;69.67;100365.81;10401368;28;20171;-61
2024/03/21 03:12:17;;;;;;;7.97;7.03;;;;;;;12.88;69.55;100332.13;10434275;28;20126;-61
2024/03/21 03:17:19;;;;;;;8.63;6.68;;;;;;;13.07;69.74;100365.22;10426546;28;20100;-61
2024/03/21 03:22:19;;;;;;;8.05;7.25;;;;;;;13.06;69.59;100375.06;10405620;28;20134;-61
2024/03/21 03:27:20;;;;;;;7.15;6.47;;;;;;;12.93;69.53;100366.47;10408407;28;20163;-61
2024/03/21 03:32:22;;;;;;;6.88;6.18;;;;;;;12.94;70.41;100357.47;10409191;28;20148;-63
2024/03/21 03:37:23;;;;;;;7.80;6.35;;;;;;;12.98;70.08;100368.72;10375389;28;20139;-61
2024/03/21 03:42:23;;;;;;;7.40;6.32;;;;;;;12.96;70.38;100378.72;10424895;28;20122;-62
2024/03/21 03:47:24;;;;;;;8.40;6.30;;;;;;;12.95;70.33;100377.84;10407526;28;20079;-63
2024/03/21 03:52:25;;;;;;;7.47;6.55;;;;;;;12.89;70.34;100362.34;10425125;28;20602;-62
2024/03/21 03:57:25;;;;;;;7.78;6.95;;;;;;;12.88;70.84;100374.00;10416065;28;20052;-61
2024/03/21 04:02:27;;;;;;;8.75;7.07;;;;;;;12.81;70.58;100365.72;10420432;28;20064;-63
2024/03/21 04:07:29;;;;;;;8.80;6.88;;;;;;;12.72;70.93;100367.38;10394863;28;20629;-61
2024/03/21 04:12:29;;;;;;;8.02;7.10;;;;;;;12.65;71.32;100366.19;10421256;28;20214;-61
2024/03/21 04:17:30;;;;;;;9.23;7.13;;;;;;;12.62;71.68;100377.16;10405611;28;20083;-63
2024/03/21 04:22:31;;;;;;;11.52;7.82;;;;;;;12.61;71.77;100372.81;10409099;28;20597;-63
2024/03/21 04:27:32;;;;;;;9.75;8.07;;;;;;;12.51;71.90;100366.56;10401966;28;20055;-63
2024/03/21 04:32:33;;;;;;;7.95;7.25;;;;;;;12.43;72.26;100369.91;10417076;28;20139;-62
2024/03/21 04:37:33;;;;;;;8.45;7.43;;;;;;;12.49;72.38;100372.06;10415113;28;20044;-62
2024/03/21 04:42:33;;;;;;;8.50;7.57;;;;;;;12.53;72.42;100373.44;10424978;28;20678;-62
2024/03/21 04:47:34;;;;;;;8.02;7.32;;;;;;;12.47;72.57;100362.47;10430351;28;20402;-62
2024/03/21 04:52:34;;;;;;;7.63;6.88;;;;;;;12.59;72.36;100390.78;10435150;28;20602;-62
2024/03/21 04:57:35;;;;;;;7.68;6.95;;;;;;;12.57;72.33;100390.06;10406055;28;20127;-61
2024/03/21 05:02:35;;;;;;;7.97;7.28;;;;;;;12.50;72.24;100373.72;10409637;28;20044;-62
2024/03/21 05:07:36;;;;;;;7.78;6.97;;;;;;;12.48;71.93;100380.19;10401666;28;20117;-62
2024/03/21 05:12:36;;;;;;;8.35;7.55;;;;;;;12.42;72.29;100391.41;10429484;28;20075;-62
2024/03/21 05:17:37;;;;;;;8.68;7.55;;;;;;;12.39;72.19;100397.84;10422018;28;20162;-63
2024/03/21 05:22:37;;;;;;;8.25;7.45;;;;;;;12.35;72.52;100401.75;10423702;28;20266;-61
2024/03/21 05:27:37;;;;;;;11.60;7.40;;;;;;;12.35;72.62;100413.25;10411228;28;20824;-62
2024/03/21 05:32:38;;;;;;;7.40;6.32;;;;;;;12.33;72.71;100409.88;10391173;28;20156;-62
2024/03/21 05:37:39;;;;;;;8.80;8.00;;;;;;;12.29;72.66;100419.13;10424483;28;20560;-62
2024/03/21 05:42:39;;;;;;;8.35;7.55;;;;;;;12.31;72.79;100433.22;10389770;28;20147;-62
2024/03/21 05:47:40;;;;;;;7.43;6.80;;;;;;;12.28;72.97;100435.28;10428608;28;20094;-62
2024/03/21 05:52:42;;;;;;;7.32;6.63;;;;;;;12.33;73.05;100441.91;10427695;28;20135;-63
2024/03/21 05:57:44;;;;;;;7.10;6.40;;;;;;;12.34;73.08;100448.97;10411121;28;20127;-62
2024/03/21 06:02:44;;;;;;;7.93;7.15;;;;;;;12.37;73.05;100459.38;10425884;28;21001;-62
2024/03/21 06:07:45;;;;;;;10.40;7.85;;;;;;;12.21;73.09;100440.28;10392130;28;20059;-61
2024/03/21 06:12:46;;;;;;;8.27;7.40;;;;;;;12.35;72.75;100455.13;10430528;28;20160;-63
2024/03/21 06:17:47;;;;;;;9.20;7.22;;;;;;;12.25;73.00;100455.09;10408273;28;20108;-62
2024/03/21 06:22:49;;;;;;;8.52;7.65;;;;;;;12.19;73.02;100459.09;10427698;28;20048;-63
2024/03/21 06:27:50;;;;;;;7.93;7.13;;;;;;;12.26;73.61;100467.44;10426020;28;20145;-61
2024/03/21 06:32:53;;;;;;;8.02;7.22;;;;;;;12.40;73.09;100468.97;10421182;28;20223;-70
2024/03/21 06:37:54;;;;;;;9.05;8.02;;;;;;;12.48;72.76;100476.31;10431119;28;20124;-71
2024/03/21 06:42:54;;;;;;;11.30;8.80;;;;;;;12.56;72.90;100479.16;10431212;28;20115;-63
2024/03/21 06:47:56;;;;;;;9.27;8.05;;;;;;;12.66;74.14;100487.25;10404681;28;20040;-65
2024/03/21 06:52:58;;;;;;;10.48;8.05;;;;;;;12.75;74.17;100494.47;10406111;28;21218;-68
2024/03/21 06:57:59;;;;;;;8.82;7.15;;;;;;;12.84;73.19;100492.84;10377475;28;20117;-61
2024/03/21 07:02:59;;;;;;;12.85;8.38;;;;;;;12.77;73.17;100480.97;10371687;28;20049;-61
2024/03/21 07:08:01;;;;;;;9.60;8.60;;;;;;;12.86;72.91;100501.53;10350463;28;20048;-60
2024/03/21 07:13:02;;;;;;;8.88;8.00;;;;;;;12.83;72.46;100499.13;10391510;28;20223;-62
2024/03/21 07:18:03;;;;;;;12.45;9.02;;;;;;;12.86;72.56;100512.22;10418310;28;20048;-62
2024/03/21 07:23:03;;;;;;;8.68;7.88;;;;;;;12.90;72.18;100511.00;10395111;28;20599;-61
2024/03/21 07:28:04;;;;;;;10.40;9.13;;;;;;;12.96;71.58;100523.81;10428297;28;20758;-60
2024/03/21 07:33:04;;;;;;;8.95;8.02;;;;;;;13.16;71.80;100545.31;10411759;28;20044;-61
2024/03/21 07:38:05;;;;;;;9.05;8.25;;;;;;;13.16;71.77;100545.31;10426391;28;20051;-62
2024/03/21 07:43:06;;;;;;;12.00;10.07;;;;;;;13.08;71.96;100533.44;10424310;28;21010;-60
2024/03/21 07:48:07;;;;;;;10.05;8.88;;;;;;;13.21;72.52;100559.97;10427735;28;20219;-66
2024/03/21 07:53:08;;;;;;;11.98;9.35;;;;;;;13.31;71.90;100554.66;10437464;28;20052;-66
2024/03/21 07:58:09;;;;;;;12.18;9.65;;;;;;;13.45;71.97;100550.81;10401416;28;20139;-66
2024/03/21 08:03:10;;;;;;;9.93;8.88;;;;;;;13.67;71.54;100571.16;10417109;28;20675;-66
2024/03/21 08:08:10;;;;;;;12.55;9.45;;;;;;;13.95;70.50;100576.72;10419803;28;20131;-66
2024/03/21 08:13:11;;;;;;;11.75;10.05;;;;;;;14.24;69.74;100575.94;10409358;28;20590;-65
2024/03/21 08:18:11;;;;;;;11.60;10.40;;;;;;;14.25;69.42;100582.97;10419403;28;20049;-64
2024/03/21 08:23:15;;;;;;;10.60;9.50;;;;;;;14.32;69.51;100593.00;10420321;28;20667;-65
2024/03/21 08:28:16;;;;;;;12.18;10.77;;;;;;;14.38;69.27;100596.94;10428848;28;20139;-66
2024/03/21 08:33:16;;;;;;;13.38;10.98;;;;;;;14.33;69.20;100596.50;10424623;28;20643;-66
2024/03/21 08:38:17;;;;;;;14.10;11.77;;;;;;;14.30;68.65;100597.63;10415571;28;20100;-66
2024/03/21 08:43:18;;;;;;;13.18;10.93;;;;;;;14.47;68.61;100596.09;10386925;28;20143;-66
2024/03/21 08:48:18;;;;;;;11.77;9.02;;;;;;;14.60;68.41;100605.69;10426318;28;20048;-68
2024/03/21 08:53:19;;;;;;;13.73;11.30;;;;;;;14.90;68.45;100595.81;10413058;28;20752;-67
2024/03/21 08:58:19;;;;;;;12.48;10.73;;;;;;;15.27;67.23;100603.09;10395472;28;20660;-67
2024/03/21 09:03:20;;;;;;;15.73;12.68;;;;;;;15.50;65.98;100604.41;10401986;28;20060;-67
2024/03/21 09:08:20;;;;;;;17.23;14.18;;;;;;;15.92;65.73;100602.28;10421297;28;20171;-64
2024/03/21 09:13:21;;;;;;;18.52;14.73;;;;;;;16.28;63.85;100587.06;10407418;28;20056;-65
2024/03/21 09:18:22;;;;;;;17.30;15.50;;;;;;;16.77;61.33;100624.31;10429715;28;20045;-65
2024/03/21 09:23:22;;;;;;;16.42;14.65;;;;;;;17.16;60.14;100623.97;10399757;28;20075;-64
2024/03/21 09:28:23;;;;;;;17.25;15.52;;;;;;;17.39;59.76;100629.66;10407821;28;20680;-65
2024/03/21 09:33:23;;;;;;;18.73;14.77;;;;;;;17.65;59.45;100634.16;10387927;28;20060;-64
2024/03/21 09:38:26;;;;;;;19.60;17.55;;;;;;;18.06;56.32;100630.84;10413882;28;20286;-69
2024/03/21 09:43:28;;;;;;;20.60;18.40;;;;;;;18.24;55.10;100653.13;10421260;28;20120;-66
2024/03/21 09:48:28;;;;;;;22.33;19.90;;;;;;;18.58;54.31;100662.97;10422850;28;20248;-67
2024/03/21 09:53:28;;;;;;;21.42;19.17;;;;;;;18.93;53.35;100663.72;10389404;28;20072;-65
2024/03/21 09:58:29;;;;;;;26.50;23.88;;;;;;;18.75;52.46;100673.78;10432641;28;20083;-65
2024/03/21 10:03:31;;;;;;;26.55;22.08;;;;;;;18.96;53.88;100687.66;10434285;28;20078;-66
2024/03/21 10:08:32;;;;;;;25.33;22.52;;;;;;;18.32;54.00;100677.41;10417739;28;20155;-67
2024/03/21 10:13:34;;;;;;;26.48;23.60;;;;;;;17.81;53.84;100673.81;10428138;28;20059;-66
2024/03/21 10:18:34;;;;;;;28.63;24.88;;;;;;;17.64;54.30;100686.34;10391415;28;20123;-67
2024/03/21 10:23:35;;;;;;;28.10;23.45;;;;;;;16.72;56.04;100691.97;10434821;28;20055;-67
2024/03/21 10:28:37;;;;;;;27.80;23.15;;;;;;;16.65;56.48;100700.78;10395672;28;20146;-67
2024/03/21 10:33:38;;;;;;;29.33;22.13;;;;;;;17.17;55.54;100706.31;10409531;28;20118;-64
2024/03/21 10:38:39;;;;;;;24.50;17.75;;;;;;;18.56;53.30;100713.50;10427784;28;20124;-63
2024/03/21 10:43:42;;;;;;;14.35;10.43;;;;;;;19.57;48.82;100712.41;10374434;28;20613;-67
2024/03/21 10:48:43;;;;;;;10.40;9.15;;;;;;;19.24;49.87;100720.53;10410826;28;20155;-66
2024/03/21 10:54:03;;;;;;;12.70;9.40;;;;;;;18.65;48.94;100726.00;10416848;28;20062;-66
2024/03/21 10:59:04;;;;;;;10.48;9.00;;;;;;;18.30;51.04;100725.22;10415948;28;20542;-65
2024/03/21 11:04:09;;;;;;;10.13;8.88;;;;;;;18.00;51.72;100735.53;10405952;28;20254;-66
2024/03/21 11:09:16;;;;;;;8.43;7.55;;;;;;;17.37;51.25;100719.59;10428047;28;20187;-65
2024/03/21 11:14:17;;;;;;;13.73;7.82;;;;;;;17.06;53.30;100711.97;10411625;28;20758;-68
2024/03/21 11:19:17;;;;;;;8.85;7.10;;;;;;;16.92;54.17;100718.75;10415861;28;20048;-66
2024/03/21 11:24:18;;;;;;;5.33;3.80;;;;;;;17.03;52.61;100720.34;10377161;28;20048;-68
2024/03/21 11:29:20;;;;;;;9.07;5.13;;;;;;;18.81;48.06;100721.63;10405776;28;20309;-68
2024/03/21 11:34:23;;;;;;;5.10;4.60;;;;;;;19.87;46.87;100747.00;10396132;28;20135;-68
2024/03/21 11:39:25;;;;;;;7.15;5.43;;;;;;;20.49;45.16;100749.81;10417969;28;20191;-69
2024/03/21 11:44:26;;;;;;;6.75;5.60;;;;;;;18.77;48.42;100750.81;10414024;28;20204;-68
2024/03/21 11:49:27;;;;;;;6.05;4.65;;;;;;;17.94;49.70;100765.81;10403703;28;20802;-68
2024/03/21 11:54:27;;;;;;;6.80;4.75;;;;;;;18.45;48.27;100756.94;10408152;28;20065;-66
2024/03/21 11:59:30;;;;;;;6.90;5.10;;;;;;;19.24;45.31;100743.97;10412412;28;20087;-68
2024/03/21 12:04:31;;;;;;;7.03;6.32;;;;;;;21.38;42.20;100753.97;10397245;28;20633;-68
2024/03/21 12:09:31;;;;;;;7.60;6.80;;;;;;;22.41;39.61;100743.44;10419565;28;20074;-68
2024/03/21 12:14:32;;;;;;;7.60;6.18;;;;;;;22.83;38.59;100758.13;10424928;28;20412;-68
2024/03/21 12:19:32;;;;;;;7.78;6.97;;;;;;;23.19;37.02;100751.84;10438909;28;20052;-67
2024/03/21 12:24:33;;;;;;;7.15;6.45;;;;;;;24.98;35.08;100753.13;10426594;28;20107;-67
2024/03/21 12:29:38;;;;;;;7.50;6.63;;;;;;;24.97;33.91;100737.81;10407056;28;20135;-68
2024/03/21 12:34:38;;;;;;;7.50;6.80;;;;;;;26.33;31.93;100752.00;10393999;28;20039;-70
2024/03/21 12:39:39;;;;;;;6.70;6.10;;;;;;;27.60;29.92;100750.41;10406624;28;20049;-68
2024/03/21 12:44:40;;;;;;;7.53;6.07;;;;;;;27.26;27.41;100731.56;10404100;28;20048;-68
2024/03/21 12:49:43;;;;;;;5.55;5.05;;;;;;;28.73;27.62;100757.41;10427463;28;20136;-70
2024/03/21 12:54:43;;;;;;;10.50;5.55;;;;;;;30.60;24.41;100744.25;10424063;28;20148;-68
2024/03/21 12:59:44;;;;;;;11.47;4.70;;;;;;;32.22;23.12;100748.28;10424420;28;20143;-66
2024/03/21 13:04:48;;;;;;;5.53;4.30;;;;;;;32.84;21.96;100758.09;10419938;28;20295;-73
2024/03/21 13:09:50;;;;;;;5.05;4.55;;;;;;;32.84;22.05;100755.34;10429280;28;20378;-70
2024/03/21 13:14:50;;;;;;;4.93;4.43;;;;;;;33.02;22.33;100759.66;10420586;28;20497;-66
2024/03/21 13:19:52;;;;;;;5.77;5.17;;;;;;;33.18;21.04;100768.03;10417663;28;20052;-70
2024/03/21 13:24:55;;;;;;;5.55;5.05;;;;;;;29.09;23.86;100773.94;10412446;28;20130;-69
2024/03/21 13:29:56;;;;;;;13.90;7.75;;;;;;;27.78;25.16;100727.75;10354937;28;20176;-68
2024/03/21 13:34:58;;;;;;;215.18;37.20;;;;;;;27.49;27.21;100766.50;10436002;28;20123;-71
2024/03/21 13:39:58;;;;;;;13.45;5.82;;;;;;;26.05;28.29;100765.97;10431376;28;21361;-70
2024/03/21 13:44:59;;;;;;;44.15;12.45;;;;;;;26.80;28.39;100768.22;10432627;28;20055;-70
2024/03/21 13:50:00;;;;;;;17.20;7.97;;;;;;;26.36;28.78;100767.97;10383794;28;20826;-69
2024/03/21 13:55:03;;;;;;;10.93;6.93;;;;;;;24.07;31.09;100778.69;10433426;28;20566;-68
2024/03/21 14:00:09;;;;;;;7.53;6.53;;;;;;;22.39;33.84;100757.19;10428359;28;20136;-70
2024/03/21 14:05:12;;;;;;;7.72;6.93;;;;;;;22.74;34.91;100779.13;10395900;28;20120;-70
2024/03/21 14:10:12;;;;;;;8.88;8.07;;;;;;;22.59;34.71;100768.31;10421498;28;20143;-68
2024/03/21 14:15:12;;;;;;;11.90;9.47;;;;;;;21.72;36.40;100771.63;10406180;28;20076;-70
2024/03/21 14:20:14;;;;;;;106.38;23.63;;;;;;;21.88;36.59;100760.63;10407291;28;20282;-66
2024/03/21 14:25:14;;;;;;;7.82;7.13;;;;;;;21.87;36.17;100753.56;10416900;28;20170;-71
2024/03/21 14:30:16;;;;;;;10.77;9.10;;;;;;;21.66;36.25;100745.28;10403291;28;20052;-65
2024/03/21 14:35:16;;;;;;;9.50;8.68;;;;;;;21.26;37.26;100750.00;10428247;28;20374;-67
2024/03/21 14:40:19;;;;;;;10.35;9.20;;;;;;;21.12;37.46;100749.78;10423464;28;20662;-70
2024/03/21 14:45:21;;;;;;;;;;;;;;;20.93;38.59;100753.81;10432627;28;20132;-66
2024/03/21 14:50:21;;;;;;;10.52;9.45;;;;;;;20.48;39.17;100752.69;10430194;28;20550;-68
2024/03/21 14:55:22;;;;;;;9.07;8.27;;;;;;;20.20;38.80;100745.03;10422368;28;20108;-67
2024/03/21 15:00:23;;;;;;;11.75;8.43;;;;;;;19.89;39.79;100753.91;10414450;28;20661;-68
2024/03/21 15:05:24;;;;;;;18.58;10.30;;;;;;;19.88;39.98;100752.22;10428526;28;20164;-67
2024/03/21 15:10:25;;;;;;;11.98;9.15;;;;;;;19.56;40.46;100743.13;10410266;28;20053;-66
2024/03/21 15:15:27;;;;;;;10.95;9.25;;;;;;;19.61;40.86;100756.94;10433887;28;20451;-69
2024/03/21 15:20:30;;;;;;;9.57;8.60;;;;;;;19.60;40.88;100749.03;10411898;28;20849;-68
2024/03/21 15:25:31;;;;;;;9.68;8.77;;;;;;;19.34;41.14;100762.72;10429194;28;20060;-65
2024/03/21 15:30:32;;;;;;;9.07;8.23;;;;;;;19.34;41.19;100754.63;10451225;28;20052;-64
2024/03/21 15:35:32;;;;;;;9.02;8.13;;;;;;;19.16;41.08;100769.09;10467216;28;20935;-65
2024/03/21 15:40:33;;;;;;;9.25;8.23;;;;;;;18.89;41.75;100762.16;10450997;28;20053;-66
2024/03/21 15:45:33;;;;;;;9.20;8.30;;;;;;;18.97;41.55;100769.41;10422479;28;20040;-65
2024/03/21 15:50:35;;;;;;;9.43;8.48;;;;;;;18.77;42.57;100767.00;10447384;28;20044;-69
2024/03/21 15:55:36;;;;;;;9.93;8.85;;;;;;;18.61;42.73;100780.41;10431631;28;20083;-66
2024/03/21 16:00:37;;;;;;;10.00;8.18;;;;;;;18.46;43.55;100783.72;10416107;28;20048;-63
2024/03/21 16:05:42;;;;;;;9.68;8.77;;;;;;;17.93;44.31;100766.78;10423499;28;20037;-71
2024/03/21 16:10:42;;;;;;;9.63;8.55;;;;;;;17.83;46.23;100795.63;10410257;28;20172;-69
2024/03/21 16:15:48;;;;;;;8.20;7.40;;;;;;;17.99;46.40;100797.63;10429210;28;20474;-68
2024/03/21 16:20:48;;;;;;;10.30;7.88;;;;;;;17.40;46.50;100794.63;10403698;28;20135;-68
2024/03/21 16:25:51;;;;;;;8.93;8.07;;;;;;;17.17;46.76;100807.72;10417885;28;20067;-67
2024/03/21 16:30:52;;;;;;;9.70;8.80;;;;;;;17.14;46.85;100808.84;10419080;28;20144;-66
2024/03/21 16:35:52;;;;;;;7.93;6.88;;;;;;;17.06;47.50;100809.63;10421474;28;20153;-68
2024/03/21 16:40:53;;;;;;;9.00;8.15;;;;;;;17.19;47.07;100817.31;10433742;28;20667;-68
2024/03/21 16:45:54;;;;;;;8.80;8.00;;;;;;;16.48;48.43;100818.81;10397087;28;20801;-66
2024/03/21 16:50:55;;;;;;;8.82;7.95;;;;;;;16.61;48.52;100813.97;10410563;28;20097;-66
2024/03/21 16:55:55;;;;;;;10.00;9.10;;;;;;;16.66;48.12;100810.81;10428987;28;20086;-70
2024/03/21 17:00:56;;;;;;;12.30;11.20;;;;;;;16.54;48.11;100812.00;10424580;28;20381;-68
2024/03/21 17:05:56;;;;;;;11.45;10.45;;;;;;;16.46;48.33;100812.75;10416293;28;20287;-67
2024/03/21 17:10:56;;;;;;;11.82;10.75;;;;;;;16.33;48.80;100825.69;10431627;28;20078;-68
2024/03/21 17:16:01;;;;;;;11.88;10.77;;;;;;;16.23;48.63;100829.25;10411911;28;20416;-68
2024/03/21 17:21:03;;;;;;;10.65;9.55;;;;;;;16.11;49.00;100825.06;10425454;28;20136;-68
2024/03/21 17:26:04;;;;;;;11.30;10.27;;;;;;;16.28;48.83;100838.72;10391920;28;20227;-69
2024/03/21 17:31:06;;;;;;;10.70;9.70;;;;;;;16.33;48.51;100839.13;10406520;28;20132;-68
2024/03/21 17:36:06;;;;;;;11.02;9.93;;;;;;;16.38;48.17;100820.72;10393581;28;20602;-67
2024/03/21 17:41:07;;;;;;;10.80;9.70;;;;;;;16.20;48.45;100832.25;10413774;28;20119;-67
2024/03/21 17:46:07;;;;;;;10.30;9.43;;;;;;;16.24;48.75;100839.03;10412927;28;20080;-66
2024/03/21 17:51:08;;;;;;;9.77;8.98;;;;;;;16.33;48.39;100841.81;10433646;28;20071;-69
2024/03/21 17:56:08;;;;;;;10.25;9.25;;;;;;;16.33;48.64;100847.19;10413242;28;20049;-70
2024/03/21 18:01:09;;;;;;;9.55;8.63;;;;;;;16.09;48.13;100856.56;10427478;28;20052;-69
2024/03/21 18:06:10;;;;;;;9.00;8.20;;;;;;;15.93;49.05;100867.06;10415590;28;20595;-70
2024/03/21 18:11:10;;;;;;;9.10;8.20;;;;;;;15.98;48.62;100868.31;10406928;28;20052;-68
2024/03/21 18:16:10;;;;;;;8.85;7.95;;;;;;;15.95;48.82;100878.50;10421297;28;20064;-68
2024/03/21 18:21:11;;;;;;;8.82;7.88;;;;;;;16.01;48.93;100872.56;10390074;28;20054;-70
2024/03/21 18:26:13;;;;;;;8.40;7.60;;;;;;;16.07;48.75;100864.75;10428821;28;20048;-66
2024/03/21 18:31:15;;;;;;;8.15;7.45;;;;;;;16.04;48.69;100864.22;10396304;28;20136;-67
2024/03/21 18:36:15;;;;;;;7.47;6.78;;;;;;;15.81;49.12;100859.16;10400566;28;20139;-67
2024/03/21 18:41:16;;;;;;;7.00;6.38;;;;;;;15.96;49.62;100867.63;10419000;28;20135;-67
2024/03/21 18:46:16;;;;;;;7.53;6.80;;;;;;;15.93;49.15;100870.59;10408582;28;20122;-65
2024/03/21 18:51:17;;;;;;;9.00;7.05;;;;;;;15.72;50.56;100870.72;10435907;28;20639;-69
2024/03/21 18:56:18;;;;;;;10.45;9.45;;;;;;;15.72;50.42;100863.53;10403813;28;20877;-69
2024/03/21 19:01:18;;;;;;;7.60;6.90;;;;;;;15.80;50.12;100862.00;10411916;28;20064;-69
2024/03/21 19:06:20;;;;;;;7.20;6.25;;;;;;;15.78;49.49;100869.31;10429351;28;20094;-66
2024/03/21 19:11:21;;;;;;;12.45;11.18;;;;;;;15.76;49.95;100885.53;10389848;28;20137;-68
2024/03/21 19:16:22;;;;;;;12.95;11.27;;;;;;;15.78;50.16;100886.28;10414810;28;20052;-66
2024/03/21 19:21:23;;;;;;;7.93;6.90;;;;;;;15.51;49.50;100879.75;10421508;28;20148;-69
2024/03/21 19:26:23;;;;;;;9.68;8.68;;;;;;;15.38;49.32;100881.88;10398781;28;20736;-69
2024/03/21 19:31:25;;;;;;;7.90;6.50;;;;;;;15.41;49.99;100884.28;10367435;28;20564;-68
2024/03/21 19:36:25;;;;;;;5.88;4.88;;;;;;;15.37;49.78;100882.84;10414059;28;20697;-68
2024/03/21 19:41:26;;;;;;;4.60;4.20;;;;;;;15.36;48.00;100870.44;10409807;28;20056;-68
2024/03/21 19:46:26;;;;;;;5.30;4.25;;;;;;;15.33;48.43;100870.72;10400632;28;20115;-67
2024/03/21 19:51:27;;;;;;;4.45;4.05;;;;;;;15.33;48.77;100881.44;10363104;28;20064;-67
2024/03/21 19:56:28;;;;;;;3.80;3.50;;;;;;;15.27;47.91;100876.66;10390056;28;20067;-69
2024/03/21 20:01:28;;;;;;;4.25;2.72;;;;;;;15.28;48.65;100889.91;10403201;28;20057;-70
2024/03/21 20:06:30;;;;;;;3.92;2.88;;;;;;;15.23;47.44;100902.88;10399294;28;20139;-70
2024/03/21 20:11:31;;;;;;;3.10;2.45;;;;;;;15.24;47.72;100893.84;10413714;28;20134;-66
2024/03/21 20:16:34;;;;;;;4.18;2.80;;;;;;;15.22;47.49;100894.97;10397106;28;20053;-66
2024/03/21 20:21:34;;;;;;;2.40;2.20;;;;;;;15.12;47.38;100900.31;10406230;28;20128;-67
2024/03/21 20:26:35;;;;;;;2.97;2.17;;;;;;;15.10;47.48;100886.19;10409689;28;20052;-66
2024/03/21 20:31:36;;;;;;;2.60;2.05;;;;;;;15.00;46.30;100883.50;10410941;28;20048;-67
2024/03/21 20:36:36;;;;;;;2.28;1.90;;;;;;;14.93;46.57;100887.69;10407386;28;20065;-66
2024/03/21 20:41:38;;;;;;;4.28;2.60;;;;;;;14.86;47.53;100879.34;10422005;28;20641;-66
2024/03/21 20:46:38;;;;;;;2.72;2.45;;;;;;;14.81;47.92;100869.03;10422633;28;20140;-66
2024/03/21 20:51:39;;;;;;;4.35;3.15;;;;;;;14.89;48.38;100867.50;10390439;28;20049;-67
2024/03/21 20:56:42;;;;;;;3.00;2.50;;;;;;;14.85;48.32;100878.50;10389039;28;20052;-67
2024/03/21 21:01:43;;;;;;;6.95;4.07;;;;;;;14.85;48.45;100894.59;10410803;28;20124;-66
2024/03/21 21:06:45;;;;;;;3.85;3.17;;;;;;;14.85;49.12;100899.09;10360376;28;20275;-67
2024/03/21 21:11:47;;;;;;;4.30;3.90;;;;;;;14.88;49.31;100900.66;10422644;28;20165;-67
2024/03/21 21:16:47;;;;;;;4.68;4.20;;;;;;;14.85;49.34;100905.31;10430842;28;20083;-64
2024/03/21 21:21:48;;;;;;;5.25;4.40;;;;;;;14.82;49.50;100905.56;10413104;28;20696;-68
2024/03/21 21:26:48;;;;;;;5.03;4.22;;;;;;;14.83;50.07;100920.69;10398547;28;20048;-71
2024/03/21 21:31:49;;;;;;;5.22;4.53;;;;;;;14.81;50.29;100919.94;10413019;28;20049;-67
2024/03/21 21:36:49;;;;;;;5.13;4.47;;;;;;;14.73;50.62;100917.13;10408419;28;20138;-67
2024/03/21 21:41:50;;;;;;;7.70;6.35;;;;;;;14.73;50.47;100919.78;10427150;28;20278;-67
2024/03/21 21:46:51;;;;;;;6.53;5.63;;;;;;;14.66;50.80;100908.75;10413302;28;20565;-67
2024/03/21 21:51:51;;;;;;;5.20;4.80;;;;;;;14.69;50.85;100906.81;10434039;28;20139;-66
2024/03/21 21:56:52;;;;;;;6.18;4.93;;;;;;;14.69;51.06;100914.84;10420377;28;20533;-68
2024/03/21 22:01:53;;;;;;;6.40;5.70;;;;;;;14.64;51.45;100907.22;10432329;28;20139;-67
2024/03/21 22:06:53;;;;;;;6.40;5.25;;;;;;;14.62;51.60;100909.16;10435403;28;20110;-67
2024/03/21 22:11:55;;;;;;;6.53;5.93;;;;;;;14.63;51.49;100916.22;10377630;28;20044;-66
2024/03/21 22:16:55;;;;;;;6.38;5.72;;;;;;;14.57;51.72;100906.00;10418464;28;20053;-65
2024/03/21 22:21:55;;;;;;;6.15;5.55;;;;;;;14.55;51.76;100918.69;10415661;28;20076;-66
2024/03/21 22:26:56;;;;;;;5.07;4.57;;;;;;;14.49;52.18;100915.56;10434520;28;20103;-68
2024/03/21 22:31:56;;;;;;;5.97;5.37;;;;;;;14.41;51.60;100888.59;10432767;28;20060;-67
2024/03/21 22:36:59;;;;;;;7.63;6.82;;;;;;;14.33;51.78;100888.41;10394617;28;20838;-67
2024/03/21 22:41:59;;;;;;;7.65;6.85;;;;;;;14.12;52.49;100881.22;10412637;28;20130;-66
2024/03/21 22:47:01;;;;;;;7.45;6.65;;;;;;;14.11;52.79;100884.91;10417194;28;20072;-67
2024/03/21 22:52:05;;;;;;;8.23;7.03;;;;;;;14.03;52.68;100882.00;10408064;28;20155;-67
2024/03/21 22:57:05;;;;;;;7.95;7.20;;;;;;;13.96;53.43;100871.00;10385858;28;20195;-66
2024/03/21 23:02:05;;;;;;;6.72;6.03;;;;;;;13.93;52.97;100881.09;10403488;28;20068;-66